Berlin — 9HA2295 — position and weather

sailwx.info

Track history (hours):
 
Tides and Currents Weather Stations Pressure Air Temp Water Temp Dewpoint Dewpoint Depression Visibility Wind Speed Wind Dir Waves Ship Positions

Berlin

Last reported at 2017-Feb-28 05:33 UTC. Time now 2017-Feb-28 05:40 UTC.
Position N 39°32' E 002°38'.

Length 140 m; draft 5 m.

Type: Ship. MMSI: 248277000.

Date/timePositionNaut miles runAvg speedWind from/ knotsBaromVisibWave heightAir tempDewpointWater temp
2017-Feb-28 05:33N 39°32' E 002°38'1111.1
2017-Feb-28 04:33N 39°25' E 002°26'10 9.8
2017-Feb-28 03:33N 39°32' E 002°17'1110.6
2017-Feb-28 02:33N 39°42' E 002°16'1110.9
2017-Feb-28 01:33N 39°53' E 002°16'1110.8
2017-Feb-28 00:33N 40°04' E 002°15'1010.4
2017-Feb-27 23:33N 40°14' E 002°15'1010.3
2017-Feb-27 22:33N 40°25' E 002°15'1110.6
2017-Feb-27 21:33N 40°35' E 002°15'1110.9
2017-Feb-27 20:33N 40°46' E 002°14'1211.8
2017-Feb-27 19:33N 40°58' E 002°14'1211.7
2017-Feb-27 18:33N 41°10' E 002°13'1110.7
2017-Feb-27 17:33N 41°20' E 002°12'9 0.7
2017-Feb-27 04:28N 41°12' E 002°09'1112.6
2017-Feb-27 03:33N 41°04' E 001°59'1313.1
2017-Feb-27 02:33N 40°54' E 001°47'1313.5
2017-Feb-27 01:33N 40°44' E 001°36'1313.4
2017-Feb-27 00:33N 40°33' E 001°25'1313.1
2017-Feb-26 23:33N 40°24' E 001°13'1313.1
2017-Feb-26 22:33N 40°16' E 000°59'6510.9
2017-Feb-26 16:32N 39°32' W 000°05'1110.7
2017-Feb-26 15:33N 39°26' W 000°15'3 2.5
2017-Feb-26 14:11N 39°27' W 000°19'0 0.0
2017-Feb-26 13:29N 39°27' W 000°19'0 0.0
2017-Feb-26 12:29N 39°27' W 000°19'0 0.0
2017-Feb-26 06:23N 39°27' W 000°19'3 3.6
2017-Feb-26 05:33N 39°25' W 000°17'87 3.5
2017-Feb-25 04:23N 37°58' W 000°24'1213.3
2017-Feb-25 03:28N 37°46' W 000°26'1212.9
2017-Feb-25 02:33N 37°34' W 000°29'1413.1
2017-Feb-25 01:27N 37°24' W 000°43'1212.8
2017-Feb-25 00:32N 37°17' W 000°54'207 4.3
2017-Feb-23 00:08N 36°05' W 004°56'813.8
2017-Feb-22 23:33N 36°03' W 005°06'1414.3
2017-Feb-22 22:33N 35°59' W 005°23'1413.8
2017-Feb-22 21:33N 35°55' W 005°39'207 7.7
2017-Feb-21 18:33N 37°26' W 009°32'1413.8
2017-Feb-21 17:33N 37°39' W 009°30'1212.6
2017-Feb-21 16:33N 37°52' W 009°28'1514.8
2017-Feb-21 15:33N 38°07' W 009°27'1514.7
2017-Feb-21 14:33N 38°21' W 009°25'1514.5
2017-Feb-21 13:33N 38°36' W 009°24'1312.5
2017-Feb-21 12:32N 38°42' W 009°10'2 1.8
2017-Feb-21 11:19N 38°43' W 009°07'0 0.0
2017-Feb-21 10:07N 38°43' W 009°07'0 0.0
2017-Feb-21 09:31N 38°43' W 009°07'0 0.0
2017-Feb-21 08:31N 38°43' W 009°07'0 0.0
2017-Feb-21 07:31N 38°43' W 009°07'0 0.0
2017-Feb-21 06:31N 38°43' W 009°07'0 0.0
2017-Feb-21 05:31N 38°43' W 009°07'0 0.0
2017-Feb-21 04:31N 38°43' W 009°07'0 0.0
2017-Feb-21 03:31N 38°43' W 009°07'0 0.0
2017-Feb-21 02:31N 38°43' W 009°07'0 0.0
2017-Feb-21 01:31N 38°43' W 009°07'0 0.0
2017-Feb-21 00:31N 38°43' W 009°07'0 0.0
2017-Feb-20 23:31N 38°43' W 009°07'0 0.0
2017-Feb-20 22:31N 38°43' W 009°07'0 0.0
2017-Feb-20 21:31N 38°43' W 009°07'0 0.0
2017-Feb-20 20:25N 38°43' W 009°07'0 0.0
2017-Feb-20 19:31N 38°43' W 009°07'0 0.0
2017-Feb-20 18:31N 38°43' W 009°07'0 0.0
2017-Feb-20 17:31N 38°43' W 009°07'0 0.0
2017-Feb-20 16:31N 38°43' W 009°07'0 0.0
2017-Feb-20 15:31N 38°43' W 009°07'0 0.0
2017-Feb-20 14:31N 38°43' W 009°07'0 0.0
2017-Feb-20 13:31N 38°43' W 009°07'0 0.0
2017-Feb-20 12:31N 38°43' W 009°07'0 0.0
2017-Feb-20 11:31N 38°43' W 009°07'0 0.0
2017-Feb-20 10:31N 38°43' W 009°07'0 0.0
2017-Feb-20 09:31N 38°43' W 009°07'0 0.0
2017-Feb-20 08:28N 38°43' W 009°07'0 0.3
2017-Feb-20 07:33N 38°43' W 009°07'9 8.6
2017-Feb-20 06:33N 38°41' W 009°18'1010.4
2017-Feb-20 05:33N 38°35' W 009°29'10 9.7
2017-Feb-20 04:33N 38°32' W 009°40'1212.4
2017-Feb-20 03:33N 38°28' W 009°56'1413.8
2017-Feb-20 02:33N 38°29' W 010°13'1413.8
2017-Feb-20 01:33N 38°37' W 010°28'48513.4
2017-Feb-18 13:17N 37°54' W 020°43'8612.4
2017-Feb-18 06:22N 37°48' W 022°32'1113.8
2017-Feb-18 05:33N 37°47' W 022°46'  
Track history (hours):
 
Tides and Currents Weather Stations Pressure Air Temp Water Temp Dewpoint Dewpoint Depression Visibility Wind Speed Wind Dir Waves Ship Positions

Berlin

Last reported at 2017-Feb-28 05:33 UTC. Time now 2017-Feb-28 05:40 UTC.
Position N 39°32' E 002°38'.

Length 140 m; draft 5 m.

Type: Ship. MMSI: 248277000.

Date/timePositionNaut miles runAvg speedWind from/ knotsBaromVisibWave heightAir tempDewpointWater temp
2017-Feb-28 05:33N 39°32' E 002°38'1111.1
2017-Feb-28 04:33N 39°25' E 002°26'10 9.8
2017-Feb-28 03:33N 39°32' E 002°17'1110.6
2017-Feb-28 02:33N 39°42' E 002°16'1110.9
2017-Feb-28 01:33N 39°53' E 002°16'1110.8
2017-Feb-28 00:33N 40°04' E 002°15'1010.4
2017-Feb-27 23:33N 40°14' E 002°15'1010.3
2017-Feb-27 22:33N 40°25' E 002°15'1110.6
2017-Feb-27 21:33N 40°35' E 002°15'1110.9
2017-Feb-27 20:33N 40°46' E 002°14'1211.8
2017-Feb-27 19:33N 40°58' E 002°14'1211.7
2017-Feb-27 18:33N 41°10' E 002°13'1110.7
2017-Feb-27 17:33N 41°20' E 002°12'9 0.7
2017-Feb-27 04:28N 41°12' E 002°09'1112.6
2017-Feb-27 03:33N 41°04' E 001°59'1313.1
2017-Feb-27 02:33N 40°54' E 001°47'1313.5
2017-Feb-27 01:33N 40°44' E 001°36'1313.4
2017-Feb-27 00:33N 40°33' E 001°25'1313.1
2017-Feb-26 23:33N 40°24' E 001°13'1313.1
2017-Feb-26 22:33N 40°16' E 000°59'6510.9
2017-Feb-26 16:32N 39°32' W 000°05'1110.7
2017-Feb-26 15:33N 39°26' W 000°15'3 2.5
2017-Feb-26 14:11N 39°27' W 000°19'0 0.0
2017-Feb-26 13:29N 39°27' W 000°19'0 0.0
2017-Feb-26 12:29N 39°27' W 000°19'0 0.0
2017-Feb-26 06:23N 39°27' W 000°19'3 3.6
2017-Feb-26 05:33N 39°25' W 000°17'87 3.5
2017-Feb-25 04:23N 37°58' W 000°24'1213.3
2017-Feb-25 03:28N 37°46' W 000°26'1212.9
2017-Feb-25 02:33N 37°34' W 000°29'1413.1
2017-Feb-25 01:27N 37°24' W 000°43'1212.8
2017-Feb-25 00:32N 37°17' W 000°54'207 4.3
2017-Feb-23 00:08N 36°05' W 004°56'813.8
2017-Feb-22 23:33N 36°03' W 005°06'1414.3
2017-Feb-22 22:33N 35°59' W 005°23'1413.8
2017-Feb-22 21:33N 35°55' W 005°39'207 7.7
2017-Feb-21 18:33N 37°26' W 009°32'1413.8
2017-Feb-21 17:33N 37°39' W 009°30'1212.6
2017-Feb-21 16:33N 37°52' W 009°28'1514.8
2017-Feb-21 15:33N 38°07' W 009°27'1514.7
2017-Feb-21 14:33N 38°21' W 009°25'1514.5
2017-Feb-21 13:33N 38°36' W 009°24'1312.5
2017-Feb-21 12:32N 38°42' W 009°10'2 1.8
2017-Feb-21 11:19N 38°43' W 009°07'0 0.0
2017-Feb-21 10:07N 38°43' W 009°07'0 0.0
2017-Feb-21 09:31N 38°43' W 009°07'0 0.0
2017-Feb-21 08:31N 38°43' W 009°07'0 0.0
2017-Feb-21 07:31N 38°43' W 009°07'0 0.0
2017-Feb-21 06:31N 38°43' W 009°07'0 0.0
2017-Feb-21 05:31N 38°43' W 009°07'0 0.0
2017-Feb-21 04:31N 38°43' W 009°07'0 0.0
2017-Feb-21 03:31N 38°43' W 009°07'0 0.0
2017-Feb-21 02:31N 38°43' W 009°07'0 0.0
2017-Feb-21 01:31N 38°43' W 009°07'0 0.0
2017-Feb-21 00:31N 38°43' W 009°07'0 0.0
2017-Feb-20 23:31N 38°43' W 009°07'0 0.0
2017-Feb-20 22:31N 38°43' W 009°07'0 0.0
2017-Feb-20 21:31N 38°43' W 009°07'0 0.0
2017-Feb-20 20:25N 38°43' W 009°07'0 0.0
2017-Feb-20 19:31N 38°43' W 009°07'0 0.0
2017-Feb-20 18:31N 38°43' W 009°07'0 0.0
2017-Feb-20 17:31N 38°43' W 009°07'0 0.0
2017-Feb-20 16:31N 38°43' W 009°07'0 0.0
2017-Feb-20 15:31N 38°43' W 009°07'0 0.0
2017-Feb-20 14:31N 38°43' W 009°07'0 0.0
2017-Feb-20 13:31N 38°43' W 009°07'0 0.0
2017-Feb-20 12:31N 38°43' W 009°07'0 0.0
2017-Feb-20 11:31N 38°43' W 009°07'0 0.0
2017-Feb-20 10:31N 38°43' W 009°07'0 0.0
2017-Feb-20 09:31N 38°43' W 009°07'0 0.0
2017-Feb-20 08:28N 38°43' W 009°07'0 0.3
2017-Feb-20 07:33N 38°43' W 009°07'9 8.6
2017-Feb-20 06:33N 38°41' W 009°18'1010.4
2017-Feb-20 05:33N 38°35' W 009°29'10 9.7
2017-Feb-20 04:33N 38°32' W 009°40'1212.4
2017-Feb-20 03:33N 38°28' W 009°56'1413.8
2017-Feb-20 02:33N 38°29' W 010°13'1413.8
2017-Feb-20 01:33N 38°37' W 010°28'48513.4
2017-Feb-18 13:17N 37°54' W 020°43'8612.4
2017-Feb-18 06:22N 37°48' W 022°32'1113.8
2017-Feb-18 05:33N 37°47' W 022°46'  

Dump ship's entire track history